Time;durP1;ratioP1;P1;durP2;ratioP2;P2;SDS_P1;SDS_P2;PMS_P1;PMS_P2;Temp;Humidity;BMP_temperature;BMP_pressure;BME280_temperature;BME280_humidity;BME280_pressure;Samples;Min_cycle;Max_cycle;Signal;HPM_P1;HPM_P2
2023/09/01 00:00:35;;;;;;;;;2.00;1.67;;;;;19.72;69.09;100376.31;5055674;28;45472;-73
2023/09/01 00:03:01;;;;;;;;;1.67;1.67;;;;;19.76;69.08;100386.00;5058123;28;45278;-74
2023/09/01 00:05:26;;;;;;;;;3.00;2.67;;;;;19.70;69.18;100367.47;5070509;28;46590;-73
2023/09/01 00:07:52;;;;;;;;;3.33;1.67;;;;;19.78;69.19;100376.25;5066207;28;45230;-73
2023/09/01 00:10:17;;;;;;;;;1.00;1.00;;;;;19.79;68.95;100378.00;5075453;28;45523;-74
2023/09/01 00:12:43;;;;;;;;;1.00;1.00;;;;;19.79;69.33;100378.88;5060182;28;45477;-74
2023/09/01 00:15:09;;;;;;;;;3.33;2.33;;;;;19.75;69.05;100382.44;5070778;28;45940;-74
2023/09/01 00:17:35;;;;;;;;;1.67;1.67;;;;;19.75;69.01;100368.31;5047993;28;45548;-74
2023/09/01 00:20:00;;;;;;;;;4.67;2.33;;;;;19.74;69.09;100366.56;5062606;28;45493;-74
2023/09/01 00:22:26;;;;;;;;;3.67;1.67;;;;;19.64;69.26;100353.38;5057172;28;45334;-73
2023/09/01 00:24:51;;;;;;;;;2.00;1.33;;;;;19.68;69.46;100357.75;5074816;28;46799;-74
2023/09/01 00:27:17;;;;;;;;;2.00;2.00;;;;;19.68;69.13;100355.09;5065614;28;45350;-74
2023/09/01 00:29:43;;;;;;;;;1.67;1.33;;;;;19.68;69.27;100359.53;5056734;28;45587;-74
2023/09/01 00:32:08;;;;;;;;;3.00;2.67;;;;;19.58;69.58;100342.84;5071749;28;45426;-73
2023/09/01 00:34:34;;;;;;;;;2.00;2.00;;;;;19.59;69.20;100344.59;5038764;28;47028;-73
2023/09/01 00:36:59;;;;;;;;;2.67;2.00;;;;;19.62;69.37;100349.00;5064701;28;45469;-73
2023/09/01 00:39:25;;;;;;;;;2.00;2.00;;;;;19.56;69.24;100338.47;5076099;28;45250;-73
2023/09/01 00:41:51;;;;;;;;;2.00;2.00;;;;;19.56;69.12;100336.69;5062787;28;45575;-73
2023/09/01 00:44:16;;;;;;;;;3.00;2.00;;;;;19.61;69.29;100348.09;5057245;28;45473;-74
2023/09/01 00:46:43;;;;;;;;;3.00;2.00;;;;;19.59;69.22;100338.41;5049557;28;45385;-73
2023/09/01 00:49:10;;;;;;;;;2.67;2.67;;;;;19.51;69.29;100329.69;5067837;28;45486;-74
2023/09/01 00:51:37;;;;;;;;;2.00;2.00;;;;;19.50;68.89;100328.81;5041650;28;45863;-74
2023/09/01 00:54:03;;;;;;;;;1.00;1.00;;;;;19.53;68.50;100342.00;5079931;28;46095;-74
2023/09/01 00:56:29;;;;;;;;;3.33;2.67;;;;;19.52;68.98;100339.34;5062747;28;45371;-74
2023/09/01 00:58:55;;;;;;;;;2.00;2.00;;;;;19.46;68.93;100327.09;5071161;28;45457;-74
2023/09/01 01:01:20;;;;;;;;;3.00;3.00;;;;;19.51;69.08;100343.78;5062812;28;45488;-73
2023/09/01 01:03:49;;;;;;;;;2.33;2.33;;;;;19.51;69.27;100341.13;5059178;28;46002;-73
2023/09/01 01:06:37;;;;;;;;;2.33;2.33;;;;;19.39;70.65;100341.25;5066847;28;45565;-74
2023/09/01 01:09:21;;;;;;;;;2.00;2.00;;;;;19.31;70.53;100340.47;5063663;28;45390;-73
2023/09/01 01:12:01;;;;;;;;;3.00;2.00;;;;;19.28;70.43;100336.09;5059108;28;45760;-73
2023/09/01 01:14:40;;;;;;;;;3.67;3.00;;;;;19.17;70.57;100324.69;5059041;28;45258;-73
2023/09/01 01:17:08;;;;;;;;;1.00;1.00;;;;;19.21;70.39;100337.88;5067976;28;45275;-73
2023/09/01 01:19:50;;;;;;;;;3.00;2.00;;;;;19.21;70.86;100337.00;5065340;28;45333;-74
2023/09/01 01:22:34;;;;;;;;;2.00;2.00;;;;;19.22;70.84;100333.50;5061931;28;45616;-73
2023/09/01 01:25:00;;;;;;;;;2.00;2.00;;;;;19.03;70.38;100338.06;5068988;28;45481;-73
2023/09/01 01:27:26;;;;;;;;;3.33;3.00;;;;;18.96;71.30;100338.97;5072248;28;45378;-73
2023/09/01 01:29:51;;;;;;;;;4.00;3.00;;;;;18.92;71.00;100338.16;5061327;28;45466;-73
2023/09/01 01:32:17;;;;;;;;;3.67;3.00;;;;;18.90;71.65;100329.34;5045840;28;45300;-73
2023/09/01 01:34:58;;;;;;;;;3.00;3.00;;;;;18.91;71.93;100328.44;5069507;28;45518;-73
2023/09/01 01:37:37;;;;;;;;;3.00;2.00;;;;;18.92;72.19;100334.59;5058789;28;45593;-73
2023/09/01 01:40:06;;;;;;;;;2.00;2.00;;;;;18.87;72.23;100313.47;5063407;28;46523;-74
2023/09/01 01:42:35;;;;;;;;;2.00;2.00;;;;;18.87;71.95;100321.41;5069411;28;45244;-73
2023/09/01 01:45:04;;;;;;;;;2.67;2.67;;;;;18.93;71.40;100323.13;5071907;28;46058;-74
2023/09/01 01:47:32;;;;;;;;;3.67;3.00;;;;;18.90;71.60;100315.22;5059618;28;45600;-73
2023/09/01 01:49:57;;;;;;;;;3.67;2.00;;;;;18.89;71.30;100319.63;5046230;28;45394;-73
2023/09/01 01:52:23;;;;;;;;;3.67;2.67;;;;;18.88;71.44;100312.59;5076256;28;45397;-73
2023/09/01 01:54:48;;;;;;;;;2.33;2.33;;;;;18.96;71.08;100313.41;5063084;28;45398;-74
2023/09/01 01:57:14;;;;;;;;;3.00;3.00;;;;;18.92;71.21;100302.84;5073710;27;45624;-73
2023/09/01 01:59:42;;;;;;;;;2.00;2.00;;;;;18.98;70.94;100310.72;5040036;28;45413;-73
2023/09/01 02:02:08;;;;;;;;;2.00;2.00;;;;;18.99;70.62;100304.56;5057342;28;45559;-73
2023/09/01 02:04:33;;;;;;;;;2.33;2.00;;;;;19.05;70.86;100300.06;5073224;28;46198;-74
2023/09/01 02:06:59;;;;;;;;;2.00;2.00;;;;;19.02;70.62;100309.81;5058358;28;45543;-73
2023/09/01 02:09:26;;;;;;;;;2.33;2.33;;;;;18.94;70.80;100298.41;5065497;28;45399;-73
2023/09/01 02:11:51;;;;;;;;;2.33;2.33;;;;;18.85;71.26;100305.53;5058242;28;45530;-73
2023/09/01 02:14:18;;;;;;;;;4.00;3.00;;;;;18.86;70.91;100302.00;5062207;28;45502;-73
2023/09/01 02:16:43;;;;;;;;;2.00;2.00;;;;;18.87;70.89;100306.41;5069694;28;45358;-73
2023/09/01 02:19:11;;;;;;;;;0.00;0.00;;;;;18.91;70.95;100306.38;5057983;28;45517;-73
2023/09/01 02:21:37;;;;;;;;;2.00;2.00;;;;;18.87;70.84;100289.66;5058076;28;45465;-73
2023/09/01 02:24:05;;;;;;;;;2.00;2.00;;;;;18.82;70.95;100280.84;5039842;28;45464;-74
2023/09/01 02:26:32;;;;;;;;;2.00;2.00;;;;;18.88;71.21;100304.66;5066015;28;45418;-73
2023/09/01 02:28:58;;;;;;;;;2.33;2.00;;;;;18.82;71.00;100280.84;5064945;28;45535;-74
2023/09/01 02:31:24;;;;;;;;;3.00;2.67;;;;;18.82;71.17;100292.34;5073401;28;45590;-74
2023/09/01 02:33:50;;;;;;;;;2.00;2.00;;;;;18.83;70.81;100295.88;5060503;28;47215;-74
2023/09/01 02:36:28;;;;;;;;;2.00;2.00;;;;;18.82;70.41;100300.28;5071741;28;45481;-74
2023/09/01 02:38:54;;;;;;;;;2.67;2.00;;;;;18.77;70.69;100285.28;5063614;28;45432;-74
2023/09/01 02:41:21;;;;;;;;;3.00;3.00;;;;;18.84;70.87;100289.66;5075041;28;45382;-74
2023/09/01 02:43:47;;;;;;;;;2.00;2.00;;;;;18.78;71.13;100297.63;5071286;28;45435;-74
2023/09/01 02:46:13;;;;;;;;;3.67;3.00;;;;;18.73;70.69;100291.50;5057894;28;45288;-74
2023/09/01 02:48:39;;;;;;;;;2.00;2.00;;;;;18.67;70.42;100287.13;5057606;28;45425;-74
2023/09/01 02:51:06;;;;;;;;;2.00;2.00;;;;;18.60;70.89;100281.00;5058964;28;45534;-74
2023/09/01 02:53:32;;;;;;;;;3.00;2.00;;;;;18.71;70.56;100290.63;5071217;28;45479;-74
2023/09/01 02:55:58;;;;;;;;;3.00;2.00;;;;;18.68;70.97;100284.47;5057014;28;45517;-74
2023/09/01 02:58:24;;;;;;;;;3.00;3.00;;;;;18.67;71.23;100281.84;5060330;28;45526;-74
2023/09/01 03:00:51;;;;;;;;;3.00;3.00;;;;;18.64;70.94;100274.81;5057077;28;45387;-75
2023/09/01 03:03:19;;;;;;;;;3.33;2.33;;;;;18.73;70.65;100286.22;5062435;28;45481;-74
2023/09/01 03:05:50;;;;;;;;;3.33;2.33;;;;;18.68;71.13;100284.47;5066916;28;45481;-74
2023/09/01 03:08:22;;;;;;;;;4.00;3.00;;;;;18.62;70.99;100283.63;5072450;28;45459;-74
2023/09/01 03:10:48;;;;;;;;;4.00;3.00;;;;;18.57;70.97;100277.50;5073837;28;45497;-74
2023/09/01 03:13:14;;;;;;;;;2.33;2.33;;;;;18.56;71.06;100271.34;5057099;28;45420;-74
2023/09/01 03:15:40;;;;;;;;;2.00;2.00;;;;;18.61;70.59;100272.16;5068350;27;45521;-74
2023/09/01 03:18:06;;;;;;;;;4.00;3.00;;;;;18.57;70.91;100265.16;5061848;28;45305;-74
2023/09/01 03:20:32;;;;;;;;;2.00;2.00;;;;;18.59;71.06;100268.66;5054948;28;45608;-74
2023/09/01 03:22:57;;;;;;;;;2.00;2.00;;;;;18.48;71.09;100252.88;5063859;28;46069;-74
2023/09/01 03:25:24;;;;;;;;;1.00;1.00;;;;;18.57;71.19;100256.34;5065820;28;45493;-74
2023/09/01 03:27:50;;;;;;;;;2.67;2.00;;;;;18.57;71.16;100256.34;5057116;28;45534;-74
2023/09/01 03:30:15;;;;;;;;;3.00;2.00;;;;;18.60;70.89;100243.97;5060940;28;45375;-74
2023/09/01 03:32:41;;;;;;;;;3.33;2.67;;;;;18.58;70.65;100245.75;5068720;28;45450;-74
2023/09/01 03:35:07;;;;;;;;;2.33;2.00;;;;;18.63;70.82;100246.59;5057084;28;45706;-74
2023/09/01 03:37:33;;;;;;;;;3.67;3.00;;;;;18.62;71.24;100255.44;5054263;28;46494;-74
2023/09/01 03:39:59;;;;;;;;;3.00;3.00;;;;;18.57;71.32;100248.41;5073731;28;45529;-74
2023/09/01 03:42:25;;;;;;;;;4.00;3.00;;;;;18.60;71.35;100253.66;5056532;28;45945;-74
2023/09/01 03:44:52;;;;;;;;;6.00;3.00;;;;;18.51;71.71;100237.88;5038882;28;45173;-74
2023/09/01 03:47:18;;;;;;;;;3.00;3.00;;;;;18.57;71.55;100237.81;5072651;28;45405;-74
2023/09/01 03:49:44;;;;;;;;;3.00;3.00;;;;;18.54;71.52;100225.47;5056757;28;45556;-74
2023/09/01 03:52:10;;;;;;;;;4.00;4.00;;;;;18.46;71.57;100241.44;5056174;28;45442;-74
2023/09/01 03:54:35;;;;;;;;;2.33;2.00;;;;;18.35;71.80;100235.34;5038417;28;45737;-74
2023/09/01 03:57:01;;;;;;;;;7.00;4.00;;;;;18.29;71.95;100224.78;5056709;28;45642;-74
2023/09/01 03:59:26;;;;;;;;;3.00;3.00;;;;;18.33;72.08;100229.19;5072843;28;45376;-74
2023/09/01 04:01:52;;;;;;;;;3.00;2.33;;;;;18.31;71.96;100225.66;5061794;28;46156;-74
2023/09/01 04:04:18;;;;;;;;;2.00;2.00;;;;;18.27;72.02;100224.81;5065129;28;45465;-74
2023/09/01 04:06:44;;;;;;;;;2.00;2.00;;;;;18.12;71.84;100192.31;5071892;28;45224;-74
2023/09/01 04:09:11;;;;;;;;;3.00;3.00;;;;;18.36;71.76;100231.78;5056896;28;45550;-74
2023/09/01 04:11:37;;;;;;;;;2.00;2.00;;;;;18.26;71.26;100217.78;5075562;28;46246;-74
2023/09/01 04:14:03;;;;;;;;;2.00;2.00;;;;;18.36;71.38;100228.25;5064384;28;46593;-74
2023/09/01 04:16:29;;;;;;;;;2.00;2.00;;;;;18.35;70.75;100219.47;5060297;28;45317;-74
2023/09/01 04:18:55;;;;;;;;;2.33;2.00;;;;;18.27;70.84;100216.88;5062361;28;46213;-74
2023/09/01 04:21:21;;;;;;;;;3.00;3.00;;;;;18.33;71.02;100223.00;5061594;28;45383;-74
2023/09/01 04:23:46;;;;;;;;;2.00;2.00;;;;;18.27;71.11;100214.22;5065525;27;45525;-74
2023/09/01 04:26:13;;;;;;;;;3.00;2.33;;;;;18.21;70.88;100194.91;5069905;28;45374;-75
2023/09/01 04:28:39;;;;;;;;;1.00;1.00;;;;;18.30;70.96;100208.03;5042108;28;45657;-74
2023/09/01 04:31:28;;;;;;;;;1.00;1.00;;;;;18.25;70.75;100204.56;5059647;28;45449;-74
2023/09/01 04:33:54;;;;;;;;;4.67;4.00;;;;;18.24;71.19;100201.03;5059386;28;45653;-74
2023/09/01 04:36:20;;;;;;;;;2.00;2.00;;;;;18.20;70.99;100193.13;5072386;28;45415;-74
2023/09/01 04:38:45;;;;;;;;;2.00;2.00;;;;;18.25;70.84;100207.19;5062758;28;45578;-74
2023/09/01 04:41:11;;;;;;;;;4.00;2.00;;;;;18.24;70.87;100197.50;5059911;28;45406;-74
2023/09/01 04:43:38;;;;;;;;;3.33;2.67;;;;;18.14;70.96;100178.19;5075073;28;45434;-74
2023/09/01 04:46:04;;;;;;;;;2.00;2.00;;;;;18.19;71.08;100173.75;5063829;28;45493;-74
2023/09/01 04:48:30;;;;;;;;;2.00;2.00;;;;;18.16;70.99;100165.81;5071374;28;45248;-74
2023/09/01 04:50:57;;;;;;;;;4.67;3.00;;;;;18.26;71.07;100174.56;5059518;28;45477;-74
2023/09/01 04:53:22;;;;;;;;;3.00;3.00;;;;;18.24;70.67;100171.97;5059433;28;45245;-73
2023/09/01 04:55:49;;;;;;;;;3.33;3.33;;;;;18.16;71.15;100168.47;5075197;28;45476;-74
2023/09/01 04:58:15;;;;;;;;;3.33;3.33;;;;;18.16;71.34;100162.31;5067493;28;45362;-74
2023/09/01 05:00:41;;;;;;;;;4.67;4.00;;;;;18.24;71.65;100163.13;5052788;28;46838;-74
2023/09/01 05:03:07;;;;;;;;;2.33;2.33;;;;;18.20;71.58;100164.91;5062348;28;45266;-74
2023/09/01 05:05:33;;;;;;;;;3.67;3.00;;;;;18.03;71.67;100156.25;5041128;28;45573;-74
2023/09/01 05:07:59;;;;;;;;;2.00;2.00;;;;;18.04;71.36;100164.13;5059141;28;45436;-74
2023/09/01 05:10:25;;;;;;;;;2.00;1.67;;;;;18.01;71.22;100160.66;5040944;28;45500;-74
2023/09/01 05:12:50;;;;;;;;;2.00;2.00;;;;;17.94;72.46;100169.50;5075069;28;45526;-74
2023/09/01 05:15:16;;;;;;;;;2.00;1.00;;;;;17.87;73.03;100166.91;5062265;28;45362;-74
2023/09/01 05:17:41;;;;;;;;;3.00;3.00;;;;;17.84;73.30;100168.69;5053548;28;45453;-74
2023/09/01 05:20:07;;;;;;;;;3.00;3.00;;;;;17.85;73.48;100173.97;5059244;28;45243;-74
2023/09/01 05:22:34;;;;;;;;;2.00;2.00;;;;;17.87;73.30;100169.56;5059013;28;45577;-74
2023/09/01 05:25:00;;;;;;;;;4.33;3.00;;;;;17.88;73.60;100171.28;5073896;28;45514;-74
2023/09/01 05:27:26;;;;;;;;;3.00;3.00;;;;;17.95;73.17;100174.78;5057496;28;45508;-74
2023/09/01 05:29:52;;;;;;;;;3.00;3.00;;;;;17.98;72.71;100171.25;5040713;28;46757;-74
2023/09/01 05:32:19;;;;;;;;;6.33;5.00;;;;;17.94;73.58;100180.94;5058610;28;45552;-74
2023/09/01 05:34:45;;;;;;;;;6.33;4.67;;;;;17.93;73.32;100181.84;5061311;28;45604;-74
2023/09/01 05:37:14;;;;;;;;;3.00;3.00;;;;;17.91;73.34;100183.63;5071302;28;45506;-74
2023/09/01 05:39:41;;;;;;;;;5.00;4.00;;;;;17.98;73.45;100184.47;5058683;28;46221;-74
2023/09/01 05:42:08;;;;;;;;;4.67;3.67;;;;;18.03;73.23;100187.97;5074125;28;45446;-74
2023/09/01 05:44:35;;;;;;;;;4.33;3.33;;;;;18.01;73.00;100187.09;5056612;28;45441;-75
2023/09/01 05:47:03;;;;;;;;;5.67;4.00;;;;;18.07;72.70;100192.34;5058660;28;45399;-75
2023/09/01 05:49:31;;;;;;;;;4.00;3.00;;;;;18.12;72.27;100198.47;5058473;28;46190;-73
2023/09/01 05:51:57;;;;;;;;;4.00;4.00;;;;;18.13;71.97;100194.94;5062546;28;45600;-73
2023/09/01 05:54:23;;;;;;;;;7.00;7.00;;;;;18.11;72.02;100190.56;5074319;28;45375;-73
2023/09/01 05:56:49;;;;;;;;;6.00;6.00;;;;;18.11;71.80;100199.38;5061060;28;45335;-73
2023/09/01 05:59:15;;;;;;;;;3.33;3.33;;;;;18.13;71.63;100207.28;5059683;28;46359;-73
2023/09/01 06:01:41;;;;;;;;;3.00;2.67;;;;;18.14;71.96;100201.97;5045388;28;45433;-73
2023/09/01 06:04:07;;;;;;;;;8.00;7.67;;;;;18.23;72.02;100219.56;5071646;28;45362;-73
2023/09/01 06:06:35;;;;;;;;;4.67;3.67;;;;;18.17;71.87;100209.03;5077824;28;45431;-74
2023/09/01 06:09:04;;;;;;;;;3.00;3.00;;;;;18.26;71.07;100206.28;5062060;28;45980;-75
2023/09/01 06:11:30;;;;;;;;;4.67;4.00;;;;;18.28;71.03;100199.22;5077268;28;45403;-75
2023/09/01 06:13:57;;;;;;;;;1.00;1.00;;;;;18.29;71.15;100185.13;5065462;28;45425;-74
2023/09/01 06:16:22;;;;;;;;;2.00;2.00;;;;;18.44;71.08;100200.00;5073941;28;46106;-74
2023/09/01 06:18:48;;;;;;;;;2.67;2.67;;;;;18.33;71.01;100171.00;5060535;28;45365;-75
2023/09/01 06:21:17;;;;;;;;;2.00;2.00;;;;;18.49;70.95;100191.13;5073607;27;45492;-75
2023/09/01 06:23:46;;;;;;;;;4.00;3.00;;;;;18.52;70.82;100186.72;5073222;27;45495;-75
2023/09/01 06:26:13;;;;;;;;;4.00;3.00;;;;;18.54;70.54;100198.16;5039935;28;45442;-75
2023/09/01 06:28:40;;;;;;;;;4.00;4.00;;;;;18.14;70.66;100191.41;5057536;28;46015;-74
2023/09/01 06:31:07;;;;;;;;;2.00;2.00;;;;;18.13;71.24;100202.00;5058819;28;45415;-74
2023/09/01 06:33:32;;;;;;;;;2.67;2.00;;;;;18.10;70.94;100200.22;5073526;28;45477;-72
2023/09/01 06:35:58;;;;;;;;;1.67;1.67;;;;;18.18;71.90;100205.47;5073315;28;45569;-77
2023/09/01 06:38:24;;;;;;;;;3.00;3.00;;;;;18.34;72.06;100193.91;5074541;28;45479;-74
2023/09/01 06:40:49;;;;;;;;;2.33;2.00;;;;;18.66;72.52;100211.28;5077036;27;45484;-74
2023/09/01 06:43:15;;;;;;;;;3.00;3.00;;;;;21.02;68.17;100206.47;5058441;28;45806;-75
2023/09/01 06:45:40;;;;;;;;;3.67;3.00;;;;;23.38;58.45;100186.84;5077408;28;45425;-75
2023/09/01 06:48:06;;;;;;;;;2.00;2.00;;;;;25.18;54.87;100196.25;5057019;28;45504;-75
2023/09/01 06:50:32;;;;;;;;;1.00;1.00;;;;;26.63;51.40;100191.56;5038846;28;45569;-75
2023/09/01 06:52:58;;;;;;;;;2.00;1.00;;;;;27.98;47.26;100191.88;5054933;28;45464;-75
2023/09/01 06:55:24;;;;;;;;;3.00;3.00;;;;;28.91;46.07;100184.53;5062497;28;45695;-74
2023/09/01 06:57:50;;;;;;;;;1.67;1.67;;;;;29.87;44.01;100183.00;5065228;28;46014;-75
2023/09/01 07:00:16;;;;;;;;;1.67;1.00;;;;;30.98;42.15;100179.31;5070912;28;45281;-75
2023/09/01 07:02:42;;;;;;;;;1.00;1.00;;;;;31.77;40.80;100179.81;5060282;28;45344;-74
2023/09/01 07:05:07;;;;;;;;;1.67;1.33;;;;;32.59;39.25;100178.06;5059433;28;45580;-75
2023/09/01 07:07:33;;;;;;;;;1.67;1.33;;;;;33.02;37.37;100175.97;5065310;28;45967;-75
2023/09/01 07:09:59;;;;;;;;;2.00;2.00;;;;;33.99;37.54;100179.09;5051101;28;46418;-75
2023/09/01 07:12:24;;;;;;;;;3.00;3.00;;;;;34.63;35.22;100167.97;5057070;28;45461;-75
2023/09/01 07:14:50;;;;;;;;;2.00;1.00;;;;;35.28;37.04;100169.28;5062504;28;45458;-75
2023/09/01 07:17:21;;;;;;;;;3.00;2.67;;;;;35.76;33.21;100171.75;5065774;28;46098;-75
2023/09/01 07:19:47;;;;;;;;;2.00;1.00;;;;;36.10;32.66;100168.97;5057029;28;45419;-72
2023/09/01 07:22:13;;;;;;;;;2.00;2.00;;;;;36.94;31.70;100177.31;5073197;28;45393;-72
2023/09/01 07:24:39;;;;;;;;;1.00;1.00;;;;;37.28;32.10;100177.13;5057212;28;45634;-72
2023/09/01 07:27:06;;;;;;;;;1.00;1.00;;;;;37.61;31.49;100166.97;5065717;28;46026;-72
2023/09/01 07:29:32;;;;;;;;;1.00;0.33;;;;;37.60;30.77;100146.16;5070381;28;45247;-72
2023/09/01 07:31:59;;;;;;;;;0.33;0.00;;;;;38.29;31.18;100179.94;5056827;28;45556;-72
2023/09/01 07:34:25;;;;;;;;;0.00;0.00;;;;;38.18;30.19;100165.44;5063392;28;45354;-72
2023/09/01 07:36:51;;;;;;;;;2.00;1.00;;;;;38.59;30.24;100185.28;5065717;28;45794;-72
2023/09/01 07:39:17;;;;;;;;;2.00;1.00;;;;;38.71;28.69;100176.94;5038387;28;45461;-72
2023/09/01 07:41:42;;;;;;;;;1.00;1.00;;;;;39.09;29.71;100186.09;5058570;28;45617;-72
2023/09/01 07:44:08;;;;;;;;;0.33;0.00;;;;;39.56;28.07;100177.94;5070758;28;45311;-72
2023/09/01 07:46:34;;;;;;;;;1.67;0.67;;;;;40.01;28.38;100187.19;5056690;28;45374;-72
2023/09/01 07:49:00;;;;;;;;;0.00;0.00;;;;;40.53;27.24;100193.78;5052490;28;45479;-72
2023/09/01 07:51:26;;;;;;;;;1.00;1.00;;;;;40.51;26.92;100190.34;5058149;28;45454;-73
2023/09/01 07:53:52;;;;;;;;;0.33;0.33;;;;;40.70;26.84;100185.69;5061583;28;45332;-75
2023/09/01 07:56:17;;;;;;;;;0.00;0.00;;;;;40.90;26.87;100183.66;5067019;28;46113;-74
2023/09/01 07:58:43;;;;;;;;;1.00;1.00;;;;;40.78;26.20;100174.84;5068394;28;45263;-73
2023/09/01 08:01:09;;;;;;;;;2.00;1.00;;;;;41.04;26.11;100180.31;5059770;28;45531;-72
2023/09/01 08:03:34;;;;;;;;;1.00;1.00;;;;;41.52;26.41;100147.91;5070288;28;45478;-73
2023/09/01 08:06:00;;;;;;;;;0.00;0.00;;;;;41.75;25.05;100167.41;5057004;28;46739;-73
2023/09/01 08:08:25;;;;;;;;;0.67;0.67;;;;;41.58;25.29;100171.91;5068524;28;45399;-72
2023/09/01 08:10:52;;;;;;;;;1.33;1.33;;;;;41.63;25.35;100175.06;5058878;28;45458;-73
2023/09/01 08:13:18;;;;;;;;;1.00;0.67;;;;;41.88;25.84;100165.06;5061155;28;45358;-75
2023/09/01 08:15:43;;;;;;;;;2.00;1.00;;;;;42.30;25.56;100168.75;5075935;28;45900;-73
2023/09/01 08:18:09;;;;;;;;;1.33;1.00;;;;;42.81;24.42;100166.75;5063692;28;45526;-73
2023/09/01 08:20:35;;;;;;;;;2.00;2.00;;;;;42.76;24.66;100174.66;5056178;28;45341;-73
2023/09/01 08:23:01;;;;;;;;;2.00;2.00;;;;;43.04;24.63;100175.16;5056612;28;45477;-73
2023/09/01 08:25:26;;;;;;;;;0.33;0.33;;;;;43.78;24.92;100168.63;5063536;28;45477;-73
2023/09/01 08:27:52;;;;;;;;;1.00;1.00;;;;;44.01;23.97;100169.53;5057195;28;45417;-72
2023/09/01 08:30:19;;;;;;;;;0.00;0.00;;;;;43.89;24.19;100170.94;5062003;28;45727;-73
2023/09/01 08:32:44;;;;;;;;;1.67;1.33;;;;;44.57;23.96;100174.84;5066829;28;45284;-73
2023/09/01 08:35:11;;;;;;;;;1.67;1.67;;;;;44.26;23.59;100181.25;5061118;28;45568;-73
2023/09/01 08:37:38;;;;;;;;;0.33;0.33;;;;;44.41;23.53;100175.81;5057442;28;45579;-73
2023/09/01 08:40:05;;;;;;;;;1.33;1.33;;;;;44.66;23.96;100181.13;5069507;28;45366;-73
2023/09/01 08:42:33;;;;;;;;;0.67;0.67;;;;;44.88;22.78;100167.53;5056405;28;45177;-73
2023/09/01 08:45:00;;;;;;;;;1.33;1.33;;;;;44.85;23.25;100175.13;5055794;28;45640;-72
2023/09/01 08:47:32;;;;;;;;;2.33;2.33;;;;;44.43;23.07;100184.75;5037475;28;45485;-73
2023/09/01 08:49:59;;;;;;;;;2.00;2.00;;;;;44.25;23.76;100184.16;5070464;28;45340;-73
2023/09/01 08:52:25;;;;;;;;;2.67;1.33;;;;;44.41;23.17;100175.81;5058688;28;45440;-73
2023/09/01 08:54:51;;;;;;;;;2.00;1.67;;;;;44.52;22.55;100173.69;5068081;28;45605;-73
2023/09/01 08:57:17;;;;;;;;;1.33;1.33;;;;;44.29;23.70;100171.75;5038186;28;45446;-73
2023/09/01 08:59:43;;;;;;;;;1.67;1.67;;;;;44.61;23.14;100175.31;5055455;28;45426;-73
2023/09/01 09:02:09;;;;;;;;;1.67;1.33;;;;;44.34;23.33;100139.03;5040990;28;45614;-73
2023/09/01 09:04:35;;;;;;;;;4.00;2.00;;;;;44.75;22.46;100181.91;5044315;28;46711;-72
2023/09/01 09:07:18;;;;;;;;;2.00;2.00;;;;;44.50;23.24;100170.28;5066288;28;45259;-73
2023/09/01 09:09:51;;;;;;;;;1.67;1.67;;;;;44.53;23.39;100176.28;5057831;28;45616;-73
2023/09/01 09:12:18;;;;;;;;;1.33;1.33;;;;;44.77;23.14;100172.44;5058455;28;45421;-73
2023/09/01 09:14:52;;;;;;;;;2.00;2.00;;;;;45.14;22.75;100184.50;5040613;28;46935;-73
2023/09/01 09:17:23;;;;;;;;;1.67;1.67;;;;;45.25;23.31;100173.00;5055401;28;45612;-73
2023/09/01 09:19:59;;;;;;;;;1.67;1.67;;;;;45.58;23.51;100182.81;5056504;28;45461;-73
2023/09/01 09:22:25;;;;;;;;;1.33;1.33;;;;;45.93;22.30;100183.94;5067553;27;45461;-73
2023/09/01 09:24:51;;;;;;;;;2.33;2.00;;;;;45.81;22.83;100178.06;5062659;28;45444;-73
2023/09/01 09:27:18;;;;;;;;;2.00;2.00;;;;;46.09;22.56;100179.25;5073642;28;45650;-73
2023/09/01 09:29:48;;;;;;;;;2.33;1.67;;;;;46.14;22.59;100182.28;5058154;28;45613;-73
2023/09/01 09:32:21;;;;;;;;;2.00;2.00;;;;;46.06;22.71;100176.88;5040445;28;45541;-74
2023/09/01 09:35:06;;;;;;;;;2.00;2.00;;;;;45.80;22.81;100172.72;5058629;28;46058;-73
2023/09/01 09:37:34;;;;;;;;;3.33;3.00;;;;;45.59;22.93;100174.34;5070048;28;45497;-74
2023/09/01 09:40:15;;;;;;;;;1.00;1.00;;;;;45.32;23.03;100164.00;5056495;28;45395;-73
2023/09/01 09:42:42;;;;;;;;;1.33;1.00;;;;;45.05;23.93;100178.22;5059446;28;45494;-73
2023/09/01 09:45:27;;;;;;;;;2.67;2.00;;;;;45.14;23.99;100170.69;5071584;27;45517;-74
2023/09/01 09:47:58;;;;;;;;;3.00;2.00;;;;;44.55;23.89;100173.31;5070147;28;45649;-73
2023/09/01 09:50:26;;;;;;;;;2.67;2.67;;;;;43.77;24.36;100153.97;5060452;28;45451;-73
2023/09/01 09:53:00;;;;;;;;;0.00;0.00;;;;;43.21;24.58;100155.88;5045595;28;45550;-73
2023/09/01 09:55:28;;;;;;;;;3.00;2.00;;;;;43.07;25.70;100162.94;5067383;28;46097;-73
2023/09/01 09:58:08;;;;;;;;;2.67;2.67;;;;;42.97;25.09;100148.56;5058147;28;45248;-74
2023/09/01 10:00:45;;;;;;;;;2.00;1.00;;;;;43.36;25.76;100158.81;5040479;28;45543;-73
2023/09/01 10:03:11;;;;;;;;;2.67;2.67;;;;;42.65;25.73;100153.88;5067823;27;45625;-73
2023/09/01 10:05:38;;;;;;;;;2.00;1.00;;;;;42.55;26.42;100152.34;5063477;28;46057;-74
2023/09/01 10:08:06;;;;;;;;;2.00;2.00;;;;;42.84;26.03;100149.91;5072731;28;45639;-73
2023/09/01 10:10:33;;;;;;;;;1.67;1.67;;;;;43.14;25.88;100150.25;5057636;28;45345;-73
2023/09/01 10:13:04;;;;;;;;;2.67;2.67;;;;;42.70;25.52;100143.25;5066467;28;45536;-73
2023/09/01 10:15:34;;;;;;;;;3.00;1.67;;;;;42.73;26.27;100136.53;5062335;28;45495;-73
2023/09/01 10:18:02;;;;;;;;;1.67;1.67;;;;;42.49;26.17;100130.03;5041671;28;45443;-73
2023/09/01 10:20:37;;;;;;;;;2.67;2.67;;;;;42.26;26.39;100132.56;5075009;27;45401;-73
2023/09/01 10:23:07;;;;;;;;;2.00;2.00;;;;;42.05;26.69;100130.31;5065176;28;45259;-73
2023/09/01 10:25:36;;;;;;;;;3.00;2.00;;;;;42.11;27.42;100129.63;5071461;28;47772;-74
2023/09/01 10:28:01;;;;;;;;;2.33;2.33;;;;;42.12;26.72;100128.63;5061766;28;45232;-73
2023/09/01 10:30:30;;;;;;;;;2.33;2.33;;;;;41.70;27.50;100121.28;5060482;28;45580;-73
2023/09/01 10:33:23;;;;;;;;;1.33;1.33;;;;;41.56;27.71;100116.38;5061996;28;45366;-74
2023/09/01 10:35:53;;;;;;;;;3.00;2.67;;;;;41.50;27.28;100117.06;5066309;28;46044;-73
2023/09/01 10:38:36;;;;;;;;;1.33;1.33;;;;;41.14;27.59;100111.72;5058236;28;45458;-74
2023/09/01 10:41:04;;;;;;;;;4.67;3.33;;;;;41.06;27.87;100108.94;5064317;28;45557;-73
2023/09/01 10:43:35;;;;;;;;;3.00;2.67;;;;;40.67;28.22;100112.94;5072074;28;45453;-73
2023/09/01 10:46:22;;;;;;;;;2.33;2.33;;;;;40.74;28.89;100103.09;5059998;28;45497;-73
2023/09/01 10:48:49;;;;;;;;;1.67;1.67;;;;;40.90;28.35;100105.06;5068659;28;45458;-73
2023/09/01 10:51:24;;;;;;;;;2.33;2.33;;;;;40.92;28.05;100094.81;5057562;28;45454;-73
2023/09/01 10:53:52;;;;;;;;;1.67;1.67;;;;;40.68;28.84;100091.91;5056287;28;45576;-73
2023/09/01 10:56:20;;;;;;;;;2.67;2.67;;;;;40.43;29.11;100089.00;5043126;28;48209;-73
2023/09/01 10:58:50;;;;;;;;;2.00;2.00;;;;;40.13;29.40;100104.78;5067917;27;45529;-73
2023/09/01 11:01:36;;;;;;;;;1.33;1.33;;;;;39.95;30.18;100093.81;5070439;28;45569;-73
2023/09/01 11:04:13;;;;;;;;;1.33;1.33;;;;;40.03;29.70;100109.44;5039001;28;45456;-73
2023/09/01 11:06:58;;;;;;;;;2.67;2.67;;;;;39.84;30.72;100104.09;5056521;28;45577;-73
2023/09/01 11:09:44;;;;;;;;;3.00;2.67;;;;;38.56;32.46;100094.63;5072269;28;45402;-73
2023/09/01 11:12:11;;;;;;;;;4.33;3.67;;;;;38.52;32.10;100088.63;5056372;28;45494;-73
2023/09/01 11:14:58;;;;;;;;;3.00;3.00;;;;;38.31;32.10;100085.16;5067626;27;45521;-73
2023/09/01 11:17:45;;;;;;;;;3.33;3.33;;;;;37.64;33.56;100089.53;5058042;28;45484;-73
2023/09/01 11:20:12;;;;;;;;;3.67;3.67;;;;;37.63;34.11;100099.56;5056542;28;45467;-73
2023/09/01 11:22:40;;;;;;;;;3.00;3.00;;;;;37.53;34.72;100095.94;5056735;28;45462;-73
2023/09/01 11:25:12;;;;;;;;;3.00;3.00;;;;;37.37;34.43;100085.56;5056924;28;45525;-73
2023/09/01 11:27:45;;;;;;;;;5.67;5.00;;;;;37.35;34.67;100093.84;5066631;28;45181;-73